sensor_id;sensor_type;location;lat;lon;timestamp;temperature;humidity
14099;DHT22;7126;48.458;7.930;2024-01-15T00:02:11;-0.40;99.90
14099;DHT22;7126;48.458;7.930;2024-01-15T00:04:38;-0.40;99.90
14099;DHT22;7126;48.458;7.930;2024-01-15T00:07:04;-0.40;99.90
14099;DHT22;7126;48.458;7.930;2024-01-15T00:09:29;-0.40;99.90
14099;DHT22;7126;48.458;7.930;2024-01-15T00:11:55;-0.40;99.90
14099;DHT22;7126;48.458;7.930;2024-01-15T00:14:20;-0.30;99.90
14099;DHT22;7126;48.458;7.930;2024-01-15T00:16:46;-0.30;99.90
14099;DHT22;7126;48.458;7.930;2024-01-15T00:19:12;-0.30;99.90
14099;DHT22;7126;48.458;7.930;2024-01-15T00:21:37;-0.20;99.90
14099;DHT22;7126;48.458;7.930;2024-01-15T00:24:03;-0.20;99.90
14099;DHT22;7126;48.458;7.930;2024-01-15T00:26:29;-0.20;99.90
14099;DHT22;7126;48.458;7.930;2024-01-15T00:28:54;-0.10;99.90
14099;DHT22;7126;48.458;7.930;2024-01-15T00:31:20;0.00;99.90
14099;DHT22;7126;48.458;7.930;2024-01-15T00:33:45;0.00;99.90
14099;DHT22;7126;48.458;7.930;2024-01-15T00:36:11;0.10;99.90
14099;DHT22;7126;48.458;7.930;2024-01-15T00:38:36;0.10;99.90
14099;DHT22;7126;48.458;7.930;2024-01-15T00:41:02;0.20;99.90
14099;DHT22;7126;48.458;7.930;2024-01-15T00:43:28;0.30;99.90
14099;DHT22;7126;48.458;7.930;2024-01-15T00:45:54;0.30;99.90
14099;DHT22;7126;48.458;7.930;2024-01-15T00:48:19;0.30;99.90
14099;DHT22;7126;48.458;7.930;2024-01-15T00:50:45;0.40;99.90
14099;DHT22;7126;48.458;7.930;2024-01-15T00:53:10;0.40;99.90
14099;DHT22;7126;48.458;7.930;2024-01-15T00:55:36;0.50;99.90
14099;DHT22;7126;48.458;7.930;2024-01-15T00:58:03;0.50;99.90
14099;DHT22;7126;48.458;7.930;2024-01-15T01:00:28;0.50;99.90
14099;DHT22;7126;48.458;7.930;2024-01-15T01:02:54;0.60;99.90
14099;DHT22;7126;48.458;7.930;2024-01-15T01:05:19;0.50;99.90
14099;DHT22;7126;48.458;7.930;2024-01-15T01:07:45;0.50;99.90
14099;DHT22;7126;48.458;7.930;2024-01-15T01:10:10;0.50;99.90
14099;DHT22;7126;48.458;7.930;2024-01-15T01:12:36;0.50;99.90
14099;DHT22;7126;48.458;7.930;2024-01-15T01:15:01;0.50;99.90
14099;DHT22;7126;48.458;7.930;2024-01-15T01:17:27;0.50;99.90
14099;DHT22;7126;48.458;7.930;2024-01-15T01:19:53;0.50;99.90
14099;DHT22;7126;48.458;7.930;2024-01-15T01:22:18;0.50;99.90
14099;DHT22;7126;48.458;7.930;2024-01-15T01:24:44;0.50;99.90
14099;DHT22;7126;48.458;7.930;2024-01-15T01:27:09;0.50;99.90
14099;DHT22;7126;48.458;7.930;2024-01-15T01:29:35;0.50;99.90
14099;DHT22;7126;48.458;7.930;2024-01-15T01:32:00;0.50;99.90
14099;DHT22;7126;48.458;7.930;2024-01-15T01:34:26;0.60;99.90
14099;DHT22;7126;48.458;7.930;2024-01-15T01:36:51;0.60;99.90
14099;DHT22;7126;48.458;7.930;2024-01-15T01:39:17;0.60;99.90
14099;DHT22;7126;48.458;7.930;2024-01-15T01:41:42;0.60;99.90
14099;DHT22;7126;48.458;7.930;2024-01-15T01:44:08;0.60;99.90
14099;DHT22;7126;48.458;7.930;2024-01-15T01:46:34;0.70;99.90
14099;DHT22;7126;48.458;7.930;2024-01-15T01:49:04;0.70;99.90
14099;DHT22;7126;48.458;7.930;2024-01-15T01:51:31;0.70;99.90
14099;DHT22;7126;48.458;7.930;2024-01-15T01:53:58;0.80;99.90
14099;DHT22;7126;48.458;7.930;2024-01-15T01:56:24;0.70;99.90
14099;DHT22;7126;48.458;7.930;2024-01-15T01:58:49;0.70;99.90
14099;DHT22;7126;48.458;7.930;2024-01-15T02:01:15;0.80;99.90
14099;DHT22;7126;48.458;7.930;2024-01-15T02:03:41;0.70;99.90
14099;DHT22;7126;48.458;7.930;2024-01-15T02:06:08;0.80;99.90
14099;DHT22;7126;48.458;7.930;2024-01-15T02:08:34;0.90;99.90
14099;DHT22;7126;48.458;7.930;2024-01-15T02:11:00;0.90;99.90
14099;DHT22;7126;48.458;7.930;2024-01-15T02:13:25;0.90;99.90
14099;DHT22;7126;48.458;7.930;2024-01-15T02:15:51;1.00;99.90
14099;DHT22;7126;48.458;7.930;2024-01-15T02:18:17;1.00;99.90
14099;DHT22;7126;48.458;7.930;2024-01-15T02:20:42;1.00;99.90
14099;DHT22;7126;48.458;7.930;2024-01-15T02:23:11;1.10;99.90
14099;DHT22;7126;48.458;7.930;2024-01-15T02:25:41;1.00;99.90
14099;DHT22;7126;48.458;7.930;2024-01-15T02:28:12;1.00;99.90
14099;DHT22;7126;48.458;7.930;2024-01-15T02:30:39;0.90;99.90
14099;DHT22;7126;48.458;7.930;2024-01-15T02:33:05;0.90;99.90
14099;DHT22;7126;48.458;7.930;2024-01-15T02:35:31;0.90;99.90
14099;DHT22;7126;48.458;7.930;2024-01-15T02:37:57;0.90;99.90
14099;DHT22;7126;48.458;7.930;2024-01-15T02:40:22;0.80;99.90
14099;DHT22;7126;48.458;7.930;2024-01-15T02:42:48;0.80;99.90
14099;DHT22;7126;48.458;7.930;2024-01-15T02:45:14;0.80;99.90
14099;DHT22;7126;48.458;7.930;2024-01-15T02:47:39;0.80;99.90
14099;DHT22;7126;48.458;7.930;2024-01-15T02:50:05;0.80;99.90
14099;DHT22;7126;48.458;7.930;2024-01-15T02:52:31;0.70;99.90
14099;DHT22;7126;48.458;7.930;2024-01-15T02:54:56;0.80;99.90
14099;DHT22;7126;48.458;7.930;2024-01-15T02:57:22;0.70;99.90
14099;DHT22;7126;48.458;7.930;2024-01-15T02:59:47;0.70;99.90
14099;DHT22;7126;48.458;7.930;2024-01-15T03:02:13;0.70;99.90
14099;DHT22;7126;48.458;7.930;2024-01-15T03:04:43;0.70;99.90
14099;DHT22;7126;48.458;7.930;2024-01-15T03:07:08;0.70;99.90
14099;DHT22;7126;48.458;7.930;2024-01-15T03:09:34;0.70;99.90
14099;DHT22;7126;48.458;7.930;2024-01-15T03:11:59;0.70;99.90
14099;DHT22;7126;48.458;7.930;2024-01-15T03:14:25;0.80;99.90
14099;DHT22;7126;48.458;7.930;2024-01-15T03:16:51;0.80;99.90
14099;DHT22;7126;48.458;7.930;2024-01-15T03:19:17;0.80;99.90
14099;DHT22;7126;48.458;7.930;2024-01-15T03:21:42;0.80;99.90
14099;DHT22;7126;48.458;7.930;2024-01-15T03:24:08;0.80;99.90
14099;DHT22;7126;48.458;7.930;2024-01-15T03:26:33;0.80;99.90
14099;DHT22;7126;48.458;7.930;2024-01-15T03:28:59;0.80;99.90
14099;DHT22;7126;48.458;7.930;2024-01-15T03:31:26;0.80;99.90
14099;DHT22;7126;48.458;7.930;2024-01-15T03:33:51;0.80;99.90
14099;DHT22;7126;48.458;7.930;2024-01-15T03:36:17;0.80;99.90
14099;DHT22;7126;48.458;7.930;2024-01-15T03:38:42;0.80;99.90
14099;DHT22;7126;48.458;7.930;2024-01-15T03:41:08;0.80;99.90
14099;DHT22;7126;48.458;7.930;2024-01-15T03:43:33;0.90;99.90
14099;DHT22;7126;48.458;7.930;2024-01-15T03:45:59;0.90;99.90
14099;DHT22;7126;48.458;7.930;2024-01-15T03:48:25;0.90;99.90
14099;DHT22;7126;48.458;7.930;2024-01-15T03:50:50;0.90;99.90
14099;DHT22;7126;48.458;7.930;2024-01-15T03:53:16;0.80;99.90
14099;DHT22;7126;48.458;7.930;2024-01-15T03:55:42;0.90;99.90
14099;DHT22;7126;48.458;7.930;2024-01-15T03:58:07;0.90;99.90
14099;DHT22;7126;48.458;7.930;2024-01-15T04:00:34;0.80;99.90
14099;DHT22;7126;48.458;7.930;2024-01-15T04:02:59;0.80;99.90
14099;DHT22;7126;48.458;7.930;2024-01-15T04:05:25;0.80;99.90
14099;DHT22;7126;48.458;7.930;2024-01-15T04:07:51;0.80;99.90
14099;DHT22;7126;48.458;7.930;2024-01-15T04:10:16;0.70;99.90
14099;DHT22;7126;48.458;7.930;2024-01-15T04:12:42;0.70;99.90
14099;DHT22;7126;48.458;7.930;2024-01-15T04:15:07;0.80;99.90
14099;DHT22;7126;48.458;7.930;2024-01-15T04:17:33;0.90;99.90
14099;DHT22;7126;48.458;7.930;2024-01-15T04:19:59;1.00;99.90
14099;DHT22;7126;48.458;7.930;2024-01-15T04:22:25;0.90;99.90
14099;DHT22;7126;48.458;7.930;2024-01-15T04:24:50;0.90;99.90
14099;DHT22;7126;48.458;7.930;2024-01-15T04:27:16;0.90;99.90
14099;DHT22;7126;48.458;7.930;2024-01-15T04:29:41;1.00;99.90
14099;DHT22;7126;48.458;7.930;2024-01-15T04:32:07;1.10;99.90
14099;DHT22;7126;48.458;7.930;2024-01-15T04:34:33;1.00;99.90
14099;DHT22;7126;48.458;7.930;2024-01-15T04:36:58;1.10;99.90
14099;DHT22;7126;48.458;7.930;2024-01-15T04:39:23;1.10;99.90
14099;DHT22;7126;48.458;7.930;2024-01-15T04:41:49;1.10;99.90
14099;DHT22;7126;48.458;7.930;2024-01-15T04:44:15;1.10;99.90
14099;DHT22;7126;48.458;7.930;2024-01-15T04:46:40;1.20;99.90
14099;DHT22;7126;48.458;7.930;2024-01-15T04:49:07;1.10;99.90
14099;DHT22;7126;48.458;7.930;2024-01-15T04:51:32;1.20;99.90
14099;DHT22;7126;48.458;7.930;2024-01-15T04:53:58;1.20;99.90
14099;DHT22;7126;48.458;7.930;2024-01-15T04:56:23;1.30;99.90
14099;DHT22;7126;48.458;7.930;2024-01-15T04:58:49;1.30;99.90
14099;DHT22;7126;48.458;7.930;2024-01-15T05:01:16;1.10;99.90
14099;DHT22;7126;48.458;7.930;2024-01-15T05:03:42;1.10;99.90
14099;DHT22;7126;48.458;7.930;2024-01-15T05:06:07;1.10;99.90
14099;DHT22;7126;48.458;7.930;2024-01-15T05:08:33;1.10;99.90
14099;DHT22;7126;48.458;7.930;2024-01-15T05:10:58;1.00;99.90
14099;DHT22;7126;48.458;7.930;2024-01-15T05:13:23;1.00;99.90
14099;DHT22;7126;48.458;7.930;2024-01-15T05:15:49;0.90;99.90
14099;DHT22;7126;48.458;7.930;2024-01-15T05:18:15;0.90;99.90
14099;DHT22;7126;48.458;7.930;2024-01-15T05:20:40;0.90;99.90
14099;DHT22;7126;48.458;7.930;2024-01-15T05:23:06;0.90;99.90
14099;DHT22;7126;48.458;7.930;2024-01-15T05:25:31;0.90;99.90
14099;DHT22;7126;48.458;7.930;2024-01-15T05:27:57;0.90;99.90
14099;DHT22;7126;48.458;7.930;2024-01-15T05:30:22;1.00;99.90
14099;DHT22;7126;48.458;7.930;2024-01-15T05:32:48;1.00;99.90
14099;DHT22;7126;48.458;7.930;2024-01-15T05:35:13;1.00;99.90
14099;DHT22;7126;48.458;7.930;2024-01-15T05:37:43;1.10;99.90
14099;DHT22;7126;48.458;7.930;2024-01-15T05:40:09;1.10;99.90
14099;DHT22;7126;48.458;7.930;2024-01-15T05:42:35;1.10;99.90
14099;DHT22;7126;48.458;7.930;2024-01-15T05:45:00;1.20;99.90
14099;DHT22;7126;48.458;7.930;2024-01-15T05:47:28;1.20;99.90
14099;DHT22;7126;48.458;7.930;2024-01-15T05:49:55;1.20;99.90
14099;DHT22;7126;48.458;7.930;2024-01-15T05:52:21;1.20;99.90
14099;DHT22;7126;48.458;7.930;2024-01-15T05:54:47;1.30;99.90
14099;DHT22;7126;48.458;7.930;2024-01-15T05:57:13;1.30;99.90
14099;DHT22;7126;48.458;7.930;2024-01-15T05:59:38;1.40;99.90
14099;DHT22;7126;48.458;7.930;2024-01-15T06:02:04;1.40;99.90
14099;DHT22;7126;48.458;7.930;2024-01-15T06:04:29;1.40;99.90
14099;DHT22;7126;48.458;7.930;2024-01-15T06:06:55;1.40;99.90
14099;DHT22;7126;48.458;7.930;2024-01-15T06:09:20;1.40;99.90
14099;DHT22;7126;48.458;7.930;2024-01-15T06:11:46;1.50;99.90
14099;DHT22;7126;48.458;7.930;2024-01-15T06:14:11;1.50;99.90
14099;DHT22;7126;48.458;7.930;2024-01-15T06:16:37;1.50;99.90
14099;DHT22;7126;48.458;7.930;2024-01-15T06:19:02;1.50;99.90
14099;DHT22;7126;48.458;7.930;2024-01-15T06:21:28;1.60;99.90
14099;DHT22;7126;48.458;7.930;2024-01-15T06:23:54;1.50;99.90
14099;DHT22;7126;48.458;7.930;2024-01-15T06:26:22;1.60;99.90
14099;DHT22;7126;48.458;7.930;2024-01-15T06:28:47;1.60;99.90
14099;DHT22;7126;48.458;7.930;2024-01-15T06:31:13;1.60;99.90
14099;DHT22;7126;48.458;7.930;2024-01-15T06:33:38;1.70;99.90
14099;DHT22;7126;48.458;7.930;2024-01-15T06:36:04;1.70;99.90
14099;DHT22;7126;48.458;7.930;2024-01-15T06:38:30;1.70;99.90
14099;DHT22;7126;48.458;7.930;2024-01-15T06:40:56;1.80;99.90
14099;DHT22;7126;48.458;7.930;2024-01-15T06:43:21;1.80;99.90
14099;DHT22;7126;48.458;7.930;2024-01-15T06:45:47;1.80;99.90
14099;DHT22;7126;48.458;7.930;2024-01-15T06:48:12;1.90;99.90
14099;DHT22;7126;48.458;7.930;2024-01-15T06:50:42;1.90;99.90
14099;DHT22;7126;48.458;7.930;2024-01-15T06:53:08;1.90;99.90
14099;DHT22;7126;48.458;7.930;2024-01-15T06:55:33;2.00;99.90
14099;DHT22;7126;48.458;7.930;2024-01-15T06:57:59;1.90;99.90
14099;DHT22;7126;48.458;7.930;2024-01-15T07:00:25;2.00;99.90
14099;DHT22;7126;48.458;7.930;2024-01-15T07:02:51;2.00;99.90
14099;DHT22;7126;48.458;7.930;2024-01-15T07:05:17;2.00;99.90
14099;DHT22;7126;48.458;7.930;2024-01-15T07:07:42;2.00;99.90
14099;DHT22;7126;48.458;7.930;2024-01-15T07:10:08;2.00;99.90
14099;DHT22;7126;48.458;7.930;2024-01-15T07:12:34;2.10;99.90
14099;DHT22;7126;48.458;7.930;2024-01-15T07:14:59;2.10;99.90
14099;DHT22;7126;48.458;7.930;2024-01-15T07:17:25;2.10;99.90
14099;DHT22;7126;48.458;7.930;2024-01-15T07:19:50;2.10;99.90
14099;DHT22;7126;48.458;7.930;2024-01-15T07:22:16;2.10;99.90
14099;DHT22;7126;48.458;7.930;2024-01-15T07:24:43;2.10;99.90
14099;DHT22;7126;48.458;7.930;2024-01-15T07:27:09;2.20;99.90
14099;DHT22;7126;48.458;7.930;2024-01-15T07:29:35;2.20;99.90
14099;DHT22;7126;48.458;7.930;2024-01-15T07:32:03;2.30;99.90
14099;DHT22;7126;48.458;7.930;2024-01-15T07:34:28;2.30;99.90
14099;DHT22;7126;48.458;7.930;2024-01-15T07:36:54;2.20;99.90
14099;DHT22;7126;48.458;7.930;2024-01-15T07:39:19;2.20;99.90
14099;DHT22;7126;48.458;7.930;2024-01-15T07:41:45;2.30;99.90
14099;DHT22;7126;48.458;7.930;2024-01-15T07:44:10;2.30;99.90
14099;DHT22;7126;48.458;7.930;2024-01-15T07:46:36;2.30;99.90
14099;DHT22;7126;48.458;7.930;2024-01-15T07:49:02;2.30;99.90
14099;DHT22;7126;48.458;7.930;2024-01-15T07:51:27;2.40;99.90
14099;DHT22;7126;48.458;7.930;2024-01-15T07:53:54;2.40;99.90
14099;DHT22;7126;48.458;7.930;2024-01-15T07:56:20;2.30;99.90
14099;DHT22;7126;48.458;7.930;2024-01-15T07:58:46;2.30;99.90
14099;DHT22;7126;48.458;7.930;2024-01-15T08:01:12;2.30;99.90
14099;DHT22;7126;48.458;7.930;2024-01-15T08:03:38;2.30;99.90
14099;DHT22;7126;48.458;7.930;2024-01-15T08:06:04;2.30;99.90
14099;DHT22;7126;48.458;7.930;2024-01-15T08:08:30;2.30;99.90
14099;DHT22;7126;48.458;7.930;2024-01-15T08:10:56;2.30;99.90
14099;DHT22;7126;48.458;7.930;2024-01-15T08:13:21;2.30;99.90
14099;DHT22;7126;48.458;7.930;2024-01-15T08:15:46;2.20;99.90
14099;DHT22;7126;48.458;7.930;2024-01-15T08:18:12;2.20;99.90
14099;DHT22;7126;48.458;7.930;2024-01-15T08:20:38;2.20;99.90
14099;DHT22;7126;48.458;7.930;2024-01-15T08:23:04;2.30;99.90
14099;DHT22;7126;48.458;7.930;2024-01-15T08:25:30;2.30;99.90
14099;DHT22;7126;48.458;7.930;2024-01-15T08:27:56;2.40;99.90
14099;DHT22;7126;48.458;7.930;2024-01-15T08:30:23;2.40;99.90
14099;DHT22;7126;48.458;7.930;2024-01-15T08:32:55;2.40;99.90
14099;DHT22;7126;48.458;7.930;2024-01-15T08:35:21;2.40;99.90
14099;DHT22;7126;48.458;7.930;2024-01-15T08:37:49;2.40;99.90
14099;DHT22;7126;48.458;7.930;2024-01-15T08:40:15;2.40;99.90
14099;DHT22;7126;48.458;7.930;2024-01-15T08:42:41;2.40;99.90
14099;DHT22;7126;48.458;7.930;2024-01-15T08:45:06;2.30;99.90
14099;DHT22;7126;48.458;7.930;2024-01-15T08:47:32;2.30;99.90
14099;DHT22;7126;48.458;7.930;2024-01-15T08:49:58;2.30;99.90
14099;DHT22;7126;48.458;7.930;2024-01-15T08:52:24;2.30;99.90
14099;DHT22;7126;48.458;7.930;2024-01-15T08:54:49;2.30;99.90
14099;DHT22;7126;48.458;7.930;2024-01-15T08:57:15;2.30;99.90
14099;DHT22;7126;48.458;7.930;2024-01-15T08:59:41;2.30;99.90
14099;DHT22;7126;48.458;7.930;2024-01-15T09:02:07;2.30;99.90
14099;DHT22;7126;48.458;7.930;2024-01-15T09:04:33;2.30;99.90
14099;DHT22;7126;48.458;7.930;2024-01-15T09:06:58;2.30;99.90
14099;DHT22;7126;48.458;7.930;2024-01-15T09:09:24;2.30;99.90
14099;DHT22;7126;48.458;7.930;2024-01-15T09:11:51;2.30;99.90
14099;DHT22;7126;48.458;7.930;2024-01-15T09:14:16;2.30;99.90
14099;DHT22;7126;48.458;7.930;2024-01-15T09:16:42;2.30;99.90
14099;DHT22;7126;48.458;7.930;2024-01-15T09:19:08;2.30;99.90
14099;DHT22;7126;48.458;7.930;2024-01-15T09:21:33;2.30;99.90
14099;DHT22;7126;48.458;7.930;2024-01-15T09:23:58;2.30;99.90
14099;DHT22;7126;48.458;7.930;2024-01-15T09:26:24;2.20;99.90
14099;DHT22;7126;48.458;7.930;2024-01-15T09:28:50;2.20;99.90
14099;DHT22;7126;48.458;7.930;2024-01-15T09:31:15;2.20;99.90
14099;DHT22;7126;48.458;7.930;2024-01-15T09:33:42;2.10;99.90
14099;DHT22;7126;48.458;7.930;2024-01-15T09:36:08;2.00;99.90
14099;DHT22;7126;48.458;7.930;2024-01-15T09:38:34;2.00;99.90
14099;DHT22;7126;48.458;7.930;2024-01-15T09:41:00;2.00;99.90
14099;DHT22;7126;48.458;7.930;2024-01-15T09:43:26;2.10;99.90
14099;DHT22;7126;48.458;7.930;2024-01-15T09:45:51;2.10;99.90
14099;DHT22;7126;48.458;7.930;2024-01-15T09:48:18;2.20;99.90
14099;DHT22;7126;48.458;7.930;2024-01-15T09:50:44;2.30;99.90
14099;DHT22;7126;48.458;7.930;2024-01-15T09:53:09;2.30;99.90
14099;DHT22;7126;48.458;7.930;2024-01-15T09:55:41;2.40;99.90
14099;DHT22;7126;48.458;7.930;2024-01-15T09:58:06;2.50;99.90
14099;DHT22;7126;48.458;7.930;2024-01-15T10:00:33;2.50;99.90
14099;DHT22;7126;48.458;7.930;2024-01-15T10:03:03;2.60;99.90
14099;DHT22;7126;48.458;7.930;2024-01-15T10:05:28;2.60;99.90
14099;DHT22;7126;48.458;7.930;2024-01-15T10:07:55;2.70;99.90
14099;DHT22;7126;48.458;7.930;2024-01-15T10:10:21;2.60;99.90
14099;DHT22;7126;48.458;7.930;2024-01-15T10:12:48;2.60;99.90
14099;DHT22;7126;48.458;7.930;2024-01-15T10:15:13;2.70;99.90
14099;DHT22;7126;48.458;7.930;2024-01-15T10:17:39;2.70;99.90
14099;DHT22;7126;48.458;7.930;2024-01-15T10:20:12;2.60;99.90
14099;DHT22;7126;48.458;7.930;2024-01-15T10:22:45;2.60;99.90
14099;DHT22;7126;48.458;7.930;2024-01-15T10:25:13;2.60;99.90
14099;DHT22;7126;48.458;7.930;2024-01-15T10:27:39;2.70;99.90
14099;DHT22;7126;48.458;7.930;2024-01-15T10:30:05;2.70;99.90
14099;DHT22;7126;48.458;7.930;2024-01-15T10:32:31;2.70;99.90
14099;DHT22;7126;48.458;7.930;2024-01-15T10:34:57;2.70;99.90
14099;DHT22;7126;48.458;7.930;2024-01-15T10:37:24;2.80;99.90
14099;DHT22;7126;48.458;7.930;2024-01-15T10:39:50;2.80;99.90
14099;DHT22;7126;48.458;7.930;2024-01-15T10:42:15;2.80;99.90
14099;DHT22;7126;48.458;7.930;2024-01-15T10:44:44;2.80;99.90
14099;DHT22;7126;48.458;7.930;2024-01-15T10:47:10;2.90;99.90
14099;DHT22;7126;48.458;7.930;2024-01-15T10:49:36;2.80;99.90
14099;DHT22;7126;48.458;7.930;2024-01-15T10:52:03;2.90;99.90
14099;DHT22;7126;48.458;7.930;2024-01-15T10:54:29;2.90;99.90
14099;DHT22;7126;48.458;7.930;2024-01-15T10:56:56;2.90;99.90
14099;DHT22;7126;48.458;7.930;2024-01-15T10:59:21;2.90;99.90
14099;DHT22;7126;48.458;7.930;2024-01-15T11:01:49;3.00;99.90
14099;DHT22;7126;48.458;7.930;2024-01-15T11:04:15;3.00;99.90
14099;DHT22;7126;48.458;7.930;2024-01-15T11:06:45;3.00;99.90
14099;DHT22;7126;48.458;7.930;2024-01-15T11:09:12;3.00;99.90
14099;DHT22;7126;48.458;7.930;2024-01-15T11:11:44;3.00;99.90
14099;DHT22;7126;48.458;7.930;2024-01-15T11:14:10;3.00;99.90
14099;DHT22;7126;48.458;7.930;2024-01-15T11:16:55;3.00;99.90
14099;DHT22;7126;48.458;7.930;2024-01-15T11:19:42;3.10;99.90
14099;DHT22;7126;48.458;7.930;2024-01-15T11:22:09;3.10;99.90
14099;DHT22;7126;48.458;7.930;2024-01-15T11:24:39;3.10;99.90
14099;DHT22;7126;48.458;7.930;2024-01-15T11:27:07;3.10;99.90
14099;DHT22;7126;48.458;7.930;2024-01-15T11:29:34;3.20;99.90
14099;DHT22;7126;48.458;7.930;2024-01-15T11:32:02;3.10;99.90
14099;DHT22;7126;48.458;7.930;2024-01-15T11:34:52;3.10;99.90
14099;DHT22;7126;48.458;7.930;2024-01-15T11:37:19;3.10;99.90
14099;DHT22;7126;48.458;7.930;2024-01-15T11:39:44;3.20;99.90
14099;DHT22;7126;48.458;7.930;2024-01-15T11:42:12;3.20;99.90
14099;DHT22;7126;48.458;7.930;2024-01-15T11:44:39;3.10;99.90
14099;DHT22;7126;48.458;7.930;2024-01-15T11:47:06;3.10;99.90
14099;DHT22;7126;48.458;7.930;2024-01-15T11:50:00;3.00;99.90
14099;DHT22;7126;48.458;7.930;2024-01-15T11:52:27;3.10;99.90
14099;DHT22;7126;48.458;7.930;2024-01-15T11:57:57;3.10;99.90
14099;DHT22;7126;48.458;7.930;2024-01-15T12:00:23;3.10;99.90
14099;DHT22;7126;48.458;7.930;2024-01-15T12:02:49;3.10;99.90
14099;DHT22;7126;48.458;7.930;2024-01-15T12:05:17;3.10;99.90
14099;DHT22;7126;48.458;7.930;2024-01-15T12:07:44;3.10;99.90
14099;DHT22;7126;48.458;7.930;2024-01-15T12:10:14;3.10;99.90
14099;DHT22;7126;48.458;7.930;2024-01-15T12:15:09;3.10;99.90
14099;DHT22;7126;48.458;7.930;2024-01-15T12:17:35;3.00;99.90
14099;DHT22;7126;48.458;7.930;2024-01-15T12:20:03;3.00;99.90
14099;DHT22;7126;48.458;7.930;2024-01-15T12:22:28;2.90;99.90
14099;DHT22;7126;48.458;7.930;2024-01-15T12:24:54;2.90;99.90
14099;DHT22;7126;48.458;7.930;2024-01-15T12:27:20;3.00;99.90
14099;DHT22;7126;48.458;7.930;2024-01-15T12:29:46;2.90;99.90
14099;DHT22;7126;48.458;7.930;2024-01-15T12:32:12;3.00;99.90
14099;DHT22;7126;48.458;7.930;2024-01-15T12:34:37;2.90;99.90
14099;DHT22;7126;48.458;7.930;2024-01-15T12:37:03;2.90;99.90
14099;DHT22;7126;48.458;7.930;2024-01-15T12:39:29;2.90;99.90
14099;DHT22;7126;48.458;7.930;2024-01-15T12:41:54;2.90;99.90
14099;DHT22;7126;48.458;7.930;2024-01-15T12:44:20;2.80;99.90
14099;DHT22;7126;48.458;7.930;2024-01-15T12:46:46;2.80;99.90
14099;DHT22;7126;48.458;7.930;2024-01-15T12:49:13;2.80;99.90
14099;DHT22;7126;48.458;7.930;2024-01-15T12:51:38;2.80;99.90
14099;DHT22;7126;48.458;7.930;2024-01-15T12:54:04;2.90;99.90
14099;DHT22;7126;48.458;7.930;2024-01-15T12:56:30;2.90;99.90
14099;DHT22;7126;48.458;7.930;2024-01-15T12:58:55;2.90;99.90
14099;DHT22;7126;48.458;7.930;2024-01-15T13:01:21;2.90;99.90
14099;DHT22;7126;48.458;7.930;2024-01-15T13:03:47;2.80;99.90
14099;DHT22;7126;48.458;7.930;2024-01-15T13:06:12;2.90;99.90
14099;DHT22;7126;48.458;7.930;2024-01-15T13:08:38;2.90;99.90
14099;DHT22;7126;48.458;7.930;2024-01-15T13:11:04;2.90;99.90
14099;DHT22;7126;48.458;7.930;2024-01-15T13:13:29;2.90;99.90
14099;DHT22;7126;48.458;7.930;2024-01-15T13:15:55;2.90;99.90
14099;DHT22;7126;48.458;7.930;2024-01-15T13:18:21;2.80;99.90
14099;DHT22;7126;48.458;7.930;2024-01-15T13:20:47;2.70;99.90
14099;DHT22;7126;48.458;7.930;2024-01-15T13:23:12;2.70;99.90
14099;DHT22;7126;48.458;7.930;2024-01-15T13:25:38;2.70;99.90
14099;DHT22;7126;48.458;7.930;2024-01-15T13:28:06;2.70;99.90
14099;DHT22;7126;48.458;7.930;2024-01-15T13:30:33;2.60;99.90
14099;DHT22;7126;48.458;7.930;2024-01-15T13:32:58;2.60;99.90
14099;DHT22;7126;48.458;7.930;2024-01-15T13:35:29;2.60;99.90
14099;DHT22;7126;48.458;7.930;2024-01-15T13:37:54;2.50;99.90
14099;DHT22;7126;48.458;7.930;2024-01-15T13:40:20;2.40;99.90
14099;DHT22;7126;48.458;7.930;2024-01-15T13:42:46;2.30;99.90
14099;DHT22;7126;48.458;7.930;2024-01-15T13:45:12;2.40;99.90
14099;DHT22;7126;48.458;7.930;2024-01-15T13:47:40;2.50;99.90
14099;DHT22;7126;48.458;7.930;2024-01-15T13:50:07;2.60;99.90
14099;DHT22;7126;48.458;7.930;2024-01-15T13:52:33;2.60;99.90
14099;DHT22;7126;48.458;7.930;2024-01-15T13:54:58;2.70;99.90
14099;DHT22;7126;48.458;7.930;2024-01-15T13:57:24;2.80;99.90
14099;DHT22;7126;48.458;7.930;2024-01-15T13:59:50;2.90;99.90
14099;DHT22;7126;48.458;7.930;2024-01-15T14:02:15;3.00;99.90
14099;DHT22;7126;48.458;7.930;2024-01-15T14:04:41;3.30;99.90
14099;DHT22;7126;48.458;7.930;2024-01-15T14:07:09;3.50;99.90
14099;DHT22;7126;48.458;7.930;2024-01-15T14:09:34;3.60;99.90
14099;DHT22;7126;48.458;7.930;2024-01-15T14:12:00;3.50;99.90
14099;DHT22;7126;48.458;7.930;2024-01-15T14:14:25;3.40;99.90
14099;DHT22;7126;48.458;7.930;2024-01-15T14:16:51;3.30;99.90
14099;DHT22;7126;48.458;7.930;2024-01-15T14:19:16;3.30;99.90
14099;DHT22;7126;48.458;7.930;2024-01-15T14:21:43;3.30;99.90
14099;DHT22;7126;48.458;7.930;2024-01-15T14:24:09;3.30;99.90
14099;DHT22;7126;48.458;7.930;2024-01-15T14:26:34;3.40;99.90
14099;DHT22;7126;48.458;7.930;2024-01-15T14:29:00;3.50;99.90
14099;DHT22;7126;48.458;7.930;2024-01-15T14:31:25;3.40;99.90
14099;DHT22;7126;48.458;7.930;2024-01-15T14:33:52;3.30;99.90
14099;DHT22;7126;48.458;7.930;2024-01-15T14:36:17;3.20;99.90
14099;DHT22;7126;48.458;7.930;2024-01-15T14:38:43;3.20;99.90
14099;DHT22;7126;48.458;7.930;2024-01-15T14:41:08;3.10;99.90
14099;DHT22;7126;48.458;7.930;2024-01-15T14:43:34;3.10;99.90
14099;DHT22;7126;48.458;7.930;2024-01-15T14:45:59;3.10;99.90
14099;DHT22;7126;48.458;7.930;2024-01-15T14:48:25;3.00;99.90
14099;DHT22;7126;48.458;7.930;2024-01-15T14:50:51;3.00;99.90
14099;DHT22;7126;48.458;7.930;2024-01-15T14:53:16;3.00;99.90
14099;DHT22;7126;48.458;7.930;2024-01-15T14:55:42;3.00;99.90
14099;DHT22;7126;48.458;7.930;2024-01-15T14:58:08;3.10;99.90
14099;DHT22;7126;48.458;7.930;2024-01-15T15:00:34;3.10;99.90
14099;DHT22;7126;48.458;7.930;2024-01-15T15:02:59;3.10;99.90
14099;DHT22;7126;48.458;7.930;2024-01-15T15:05:25;3.10;99.90
14099;DHT22;7126;48.458;7.930;2024-01-15T15:07:51;3.10;99.90
14099;DHT22;7126;48.458;7.930;2024-01-15T15:10:17;3.10;99.90
14099;DHT22;7126;48.458;7.930;2024-01-15T15:12:42;3.10;99.90
14099;DHT22;7126;48.458;7.930;2024-01-15T15:15:08;3.20;99.90
14099;DHT22;7126;48.458;7.930;2024-01-15T15:17:36;3.20;99.90
14099;DHT22;7126;48.458;7.930;2024-01-15T15:20:02;3.20;99.90
14099;DHT22;7126;48.458;7.930;2024-01-15T15:22:28;3.20;99.90
14099;DHT22;7126;48.458;7.930;2024-01-15T15:24:53;3.20;99.90
14099;DHT22;7126;48.458;7.930;2024-01-15T15:27:20;3.20;99.90
14099;DHT22;7126;48.458;7.930;2024-01-15T15:29:45;3.30;99.90
14099;DHT22;7126;48.458;7.930;2024-01-15T15:32:13;3.30;99.90
14099;DHT22;7126;48.458;7.930;2024-01-15T15:34:39;3.20;99.90
14099;DHT22;7126;48.458;7.930;2024-01-15T15:37:04;3.20;99.90
14099;DHT22;7126;48.458;7.930;2024-01-15T15:39:30;3.20;99.90
14099;DHT22;7126;48.458;7.930;2024-01-15T15:41:56;3.20;99.90
14099;DHT22;7126;48.458;7.930;2024-01-15T15:44:22;3.10;99.90
14099;DHT22;7126;48.458;7.930;2024-01-15T15:46:47;3.10;99.90
14099;DHT22;7126;48.458;7.930;2024-01-15T15:49:13;3.00;99.90
14099;DHT22;7126;48.458;7.930;2024-01-15T15:51:40;3.00;99.90
14099;DHT22;7126;48.458;7.930;2024-01-15T15:54:05;3.10;99.90
14099;DHT22;7126;48.458;7.930;2024-01-15T15:56:34;3.10;99.90
14099;DHT22;7126;48.458;7.930;2024-01-15T15:59:06;3.10;99.90
14099;DHT22;7126;48.458;7.930;2024-01-15T16:01:37;3.10;99.90